CheckWX is a tool to help pilots better visualize weather data.  It is not intended as a substitute for an official pre-flight weather briefing.

05:16:42 UTC

UTDD METAR
Dushanbe Airport
Dushanbe, Tajikistan
Current

47 mins ago

UTDD 200430Z VRB01MPS 6000 NSC 11/06 Q1017 R09/D NOSIG RMK QFE694/0926
Observed
Mar-20 @ 04:30 UTC
Wind
  • Variable at 2 KTS
Visibility
6,003 meters
Flight Rules
MVFR
Cloud Levels
  • Clear skies
Temperature
11°C / 52°F
Dewpoint
C / 43°F
Humidity
72%
Altimeter
30.03" Hg
Pressure
1016.92 hPa
Previous

1 hour ago

UTDD 200400Z VRB01MPS 5000 BR FU NSC 10/06 Q1017 R09/D NOSIG RMK QFE694/0926
Observed
Mar-20 @ 04:00 UTC
Wind
  • Variable at 2 KTS
Visibility
5,005 meters
Flight Rules
MVFR
Conditions
Mist, Smoke
Cloud Levels
  • Clear skies
Temperature
10°C / 50°F
Dewpoint
C / 43°F
Humidity
76%
Altimeter
30.03" Hg
Pressure
1016.92 hPa
Previous

2 hours ago

UTDD 200330Z VRB01MPS 3200 BR FU NSC 09/06 Q1017 R09/D NOSIG RMK QFE694/0926
Observed
Mar-20 @ 03:30 UTC
Wind
  • Variable at 2 KTS
Visibility
3,203 meters
Flight Rules
IFR
Conditions
Mist, Smoke
Cloud Levels
  • Clear skies
Temperature
C / 48°F
Dewpoint
C / 43°F
Humidity
82%
Altimeter
30.03" Hg
Pressure
1016.92 hPa